sensor_id;sensor_type;location;lat;lon;timestamp;P1;durP1;ratioP1;P2;durP2;ratioP2
15202;SDS011;7702;51.046;5.184;2022-12-07T00:03:32;17.60;;;13.03;;
15202;SDS011;7702;51.046;5.184;2022-12-07T00:05:59;18.73;;;13.73;;
15202;SDS011;7702;51.046;5.184;2022-12-07T00:08:25;18.40;;;14.33;;
15202;SDS011;7702;51.046;5.184;2022-12-07T00:10:51;19.73;;;14.43;;
15202;SDS011;7702;51.046;5.184;2022-12-07T00:13:17;20.20;;;14.03;;
15202;SDS011;7702;51.046;5.184;2022-12-07T00:15:43;19.03;;;14.50;;
15202;SDS011;7702;51.046;5.184;2022-12-07T00:18:09;19.70;;;15.23;;
15202;SDS011;7702;51.046;5.184;2022-12-07T00:20:34;17.27;;;13.97;;
15202;SDS011;7702;51.046;5.184;2022-12-07T00:23:00;21.37;;;14.83;;
15202;SDS011;7702;51.046;5.184;2022-12-07T00:25:26;19.77;;;14.10;;
15202;SDS011;7702;51.046;5.184;2022-12-07T00:27:52;17.90;;;14.03;;
15202;SDS011;7702;51.046;5.184;2022-12-07T00:30:20;17.30;;;14.13;;
15202;SDS011;7702;51.046;5.184;2022-12-07T00:32:47;22.83;;;14.70;;
15202;SDS011;7702;51.046;5.184;2022-12-07T00:35:12;19.97;;;14.83;;
15202;SDS011;7702;51.046;5.184;2022-12-07T00:37:38;25.33;;;15.30;;
15202;SDS011;7702;51.046;5.184;2022-12-07T00:40:05;20.63;;;14.70;;
15202;SDS011;7702;51.046;5.184;2022-12-07T00:42:31;20.57;;;15.27;;
15202;SDS011;7702;51.046;5.184;2022-12-07T00:44:56;20.57;;;15.23;;
15202;SDS011;7702;51.046;5.184;2022-12-07T00:47:22;18.83;;;15.17;;
15202;SDS011;7702;51.046;5.184;2022-12-07T00:49:47;20.70;;;15.33;;
15202;SDS011;7702;51.046;5.184;2022-12-07T00:52:14;18.43;;;15.70;;
15202;SDS011;7702;51.046;5.184;2022-12-07T00:54:40;23.07;;;16.43;;
15202;SDS011;7702;51.046;5.184;2022-12-07T00:57:05;23.30;;;19.10;;
15202;SDS011;7702;51.046;5.184;2022-12-07T00:59:31;21.37;;;16.50;;
15202;SDS011;7702;51.046;5.184;2022-12-07T01:01:57;20.23;;;17.37;;
15202;SDS011;7702;51.046;5.184;2022-12-07T01:04:23;23.27;;;18.23;;
15202;SDS011;7702;51.046;5.184;2022-12-07T01:06:48;24.40;;;18.57;;
15202;SDS011;7702;51.046;5.184;2022-12-07T01:09:14;23.47;;;17.83;;
15202;SDS011;7702;51.046;5.184;2022-12-07T01:11:40;22.60;;;17.83;;
15202;SDS011;7702;51.046;5.184;2022-12-07T01:14:06;23.73;;;18.83;;
15202;SDS011;7702;51.046;5.184;2022-12-07T01:16:31;23.63;;;18.30;;
15202;SDS011;7702;51.046;5.184;2022-12-07T01:18:58;22.70;;;18.13;;
15202;SDS011;7702;51.046;5.184;2022-12-07T01:21:26;23.60;;;17.73;;
15202;SDS011;7702;51.046;5.184;2022-12-07T01:23:54;26.70;;;19.73;;
15202;SDS011;7702;51.046;5.184;2022-12-07T01:26:23;18.70;;;16.80;;
15202;SDS011;7702;51.046;5.184;2022-12-07T01:28:50;23.13;;;17.00;;
15202;SDS011;7702;51.046;5.184;2022-12-07T01:31:17;20.97;;;16.77;;
15202;SDS011;7702;51.046;5.184;2022-12-07T01:33:46;18.13;;;16.03;;
15202;SDS011;7702;51.046;5.184;2022-12-07T01:36:15;22.63;;;16.53;;
15202;SDS011;7702;51.046;5.184;2022-12-07T01:38:49;18.77;;;15.47;;
15202;SDS011;7702;51.046;5.184;2022-12-07T01:41:21;23.43;;;15.83;;
15202;SDS011;7702;51.046;5.184;2022-12-07T01:49:19;24.47;;;16.07;;
15202;SDS011;7702;51.046;5.184;2022-12-07T01:51:55;22.17;;;15.80;;
15202;SDS011;7702;51.046;5.184;2022-12-07T01:54:31;21.83;;;15.60;;
15202;SDS011;7702;51.046;5.184;2022-12-07T01:56:58;22.60;;;17.07;;
15202;SDS011;7702;51.046;5.184;2022-12-07T01:59:25;19.13;;;16.07;;
15202;SDS011;7702;51.046;5.184;2022-12-07T02:01:51;20.83;;;15.77;;
15202;SDS011;7702;51.046;5.184;2022-12-07T02:04:19;23.60;;;16.97;;
15202;SDS011;7702;51.046;5.184;2022-12-07T02:06:46;22.13;;;16.73;;
15202;SDS011;7702;51.046;5.184;2022-12-07T02:09:12;21.27;;;16.13;;
15202;SDS011;7702;51.046;5.184;2022-12-07T02:11:38;21.00;;;16.80;;
15202;SDS011;7702;51.046;5.184;2022-12-07T02:14:05;23.63;;;17.33;;
15202;SDS011;7702;51.046;5.184;2022-12-07T02:16:34;22.70;;;18.70;;
15202;SDS011;7702;51.046;5.184;2022-12-07T02:32:36;34.87;;;29.17;;
15202;SDS011;7702;51.046;5.184;2022-12-07T02:35:09;34.00;;;29.60;;
15202;SDS011;7702;51.046;5.184;2022-12-07T02:37:53;34.80;;;30.13;;
15202;SDS011;7702;51.046;5.184;2022-12-07T02:40:39;34.10;;;28.87;;
15202;SDS011;7702;51.046;5.184;2022-12-07T02:45:44;42.03;;;32.27;;
15202;SDS011;7702;51.046;5.184;2022-12-07T02:48:13;36.47;;;28.73;;
15202;SDS011;7702;51.046;5.184;2022-12-07T02:50:48;35.43;;;26.03;;
15202;SDS011;7702;51.046;5.184;2022-12-07T03:07:05;25.23;;;17.60;;
15202;SDS011;7702;51.046;5.184;2022-12-07T03:10:09;22.73;;;17.27;;
15202;SDS011;7702;51.046;5.184;2022-12-07T03:18:28;26.47;;;18.10;;
15202;SDS011;7702;51.046;5.184;2022-12-07T03:21:02;25.33;;;19.40;;
15202;SDS011;7702;51.046;5.184;2022-12-07T03:23:34;24.80;;;19.77;;
15202;SDS011;7702;51.046;5.184;2022-12-07T03:26:02;25.57;;;19.93;;
15202;SDS011;7702;51.046;5.184;2022-12-07T03:28:35;24.53;;;19.30;;
15202;SDS011;7702;51.046;5.184;2022-12-07T03:31:13;22.87;;;20.43;;
15202;SDS011;7702;51.046;5.184;2022-12-07T03:33:52;24.37;;;20.63;;
15202;SDS011;7702;51.046;5.184;2022-12-07T03:36:37;24.87;;;21.20;;
15202;SDS011;7702;51.046;5.184;2022-12-07T03:41:40;30.23;;;22.70;;
15202;SDS011;7702;51.046;5.184;2022-12-07T03:44:06;27.90;;;23.33;;
15202;SDS011;7702;51.046;5.184;2022-12-07T03:49:27;29.37;;;22.20;;
15202;SDS011;7702;51.046;5.184;2022-12-07T03:57:14;28.67;;;18.70;;
15202;SDS011;7702;51.046;5.184;2022-12-07T03:59:41;23.90;;;19.23;;
15202;SDS011;7702;51.046;5.184;2022-12-07T04:02:08;22.07;;;18.43;;
15202;SDS011;7702;51.046;5.184;2022-12-07T04:04:37;26.53;;;18.63;;
15202;SDS011;7702;51.046;5.184;2022-12-07T04:07:04;25.73;;;17.73;;
15202;SDS011;7702;51.046;5.184;2022-12-07T04:09:30;22.53;;;16.77;;
15202;SDS011;7702;51.046;5.184;2022-12-07T04:11:56;25.87;;;18.30;;
15202;SDS011;7702;51.046;5.184;2022-12-07T04:14:22;23.17;;;17.30;;
15202;SDS011;7702;51.046;5.184;2022-12-07T04:16:51;24.07;;;18.03;;
15202;SDS011;7702;51.046;5.184;2022-12-07T04:19:22;22.30;;;17.63;;
15202;SDS011;7702;51.046;5.184;2022-12-07T04:21:50;21.20;;;17.97;;
15202;SDS011;7702;51.046;5.184;2022-12-07T04:24:16;24.90;;;18.23;;
15202;SDS011;7702;51.046;5.184;2022-12-07T04:26:42;23.40;;;17.97;;
15202;SDS011;7702;51.046;5.184;2022-12-07T04:29:09;21.10;;;18.07;;
15202;SDS011;7702;51.046;5.184;2022-12-07T04:31:35;25.33;;;18.40;;
15202;SDS011;7702;51.046;5.184;2022-12-07T04:34:01;27.00;;;19.17;;
15202;SDS011;7702;51.046;5.184;2022-12-07T04:36:27;24.83;;;18.67;;
15202;SDS011;7702;51.046;5.184;2022-12-07T04:38:53;28.10;;;19.00;;
15202;SDS011;7702;51.046;5.184;2022-12-07T04:41:20;26.90;;;18.17;;
15202;SDS011;7702;51.046;5.184;2022-12-07T04:44:01;25.70;;;18.93;;
15202;SDS011;7702;51.046;5.184;2022-12-07T04:46:30;26.07;;;19.70;;
15202;SDS011;7702;51.046;5.184;2022-12-07T04:48:58;27.43;;;20.00;;
15202;SDS011;7702;51.046;5.184;2022-12-07T04:51:25;32.27;;;20.50;;
15202;SDS011;7702;51.046;5.184;2022-12-07T04:53:53;28.53;;;19.67;;
15202;SDS011;7702;51.046;5.184;2022-12-07T04:56:20;28.43;;;19.53;;
15202;SDS011;7702;51.046;5.184;2022-12-07T04:58:46;31.47;;;21.57;;
15202;SDS011;7702;51.046;5.184;2022-12-07T05:01:13;26.93;;;19.30;;
15202;SDS011;7702;51.046;5.184;2022-12-07T05:03:40;27.33;;;20.43;;
15202;SDS011;7702;51.046;5.184;2022-12-07T05:06:06;28.37;;;20.80;;
15202;SDS011;7702;51.046;5.184;2022-12-07T05:08:33;31.63;;;21.13;;
15202;SDS011;7702;51.046;5.184;2022-12-07T05:11:00;28.57;;;20.30;;
15202;SDS011;7702;51.046;5.184;2022-12-07T05:13:27;32.17;;;20.00;;
15202;SDS011;7702;51.046;5.184;2022-12-07T05:15:52;28.47;;;20.23;;
15202;SDS011;7702;51.046;5.184;2022-12-07T05:18:18;28.90;;;20.67;;
15202;SDS011;7702;51.046;5.184;2022-12-07T05:20:44;30.73;;;22.00;;
15202;SDS011;7702;51.046;5.184;2022-12-07T05:23:10;29.30;;;20.57;;
15202;SDS011;7702;51.046;5.184;2022-12-07T05:25:37;29.90;;;20.30;;
15202;SDS011;7702;51.046;5.184;2022-12-07T05:28:03;27.20;;;20.30;;
15202;SDS011;7702;51.046;5.184;2022-12-07T05:30:30;32.43;;;21.03;;
15202;SDS011;7702;51.046;5.184;2022-12-07T05:32:57;25.13;;;19.00;;
15202;SDS011;7702;51.046;5.184;2022-12-07T05:35:23;28.93;;;20.23;;
15202;SDS011;7702;51.046;5.184;2022-12-07T05:37:49;26.63;;;20.10;;
15202;SDS011;7702;51.046;5.184;2022-12-07T05:40:15;24.07;;;19.70;;
15202;SDS011;7702;51.046;5.184;2022-12-07T05:42:42;29.70;;;20.00;;
15202;SDS011;7702;51.046;5.184;2022-12-07T05:45:08;25.63;;;19.93;;
15202;SDS011;7702;51.046;5.184;2022-12-07T05:47:35;26.73;;;19.10;;
15202;SDS011;7702;51.046;5.184;2022-12-07T05:50:01;30.00;;;20.33;;
15202;SDS011;7702;51.046;5.184;2022-12-07T05:52:27;28.77;;;20.27;;
15202;SDS011;7702;51.046;5.184;2022-12-07T05:54:52;29.53;;;20.87;;
15202;SDS011;7702;51.046;5.184;2022-12-07T05:57:18;31.80;;;20.20;;
15202;SDS011;7702;51.046;5.184;2022-12-07T05:59:44;27.57;;;19.67;;
15202;SDS011;7702;51.046;5.184;2022-12-07T06:02:11;26.43;;;19.77;;
15202;SDS011;7702;51.046;5.184;2022-12-07T06:04:39;24.80;;;19.17;;
15202;SDS011;7702;51.046;5.184;2022-12-07T06:07:07;28.03;;;20.53;;
15202;SDS011;7702;51.046;5.184;2022-12-07T06:09:34;26.63;;;20.53;;
15202;SDS011;7702;51.046;5.184;2022-12-07T06:12:02;31.30;;;22.70;;
15202;SDS011;7702;51.046;5.184;2022-12-07T06:14:46;27.17;;;22.00;;
15202;SDS011;7702;51.046;5.184;2022-12-07T06:17:13;27.27;;;21.27;;
15202;SDS011;7702;51.046;5.184;2022-12-07T06:19:40;29.87;;;22.07;;
15202;SDS011;7702;51.046;5.184;2022-12-07T06:22:06;29.87;;;22.27;;
15202;SDS011;7702;51.046;5.184;2022-12-07T06:24:34;28.50;;;21.17;;
15202;SDS011;7702;51.046;5.184;2022-12-07T06:27:00;31.43;;;21.00;;
15202;SDS011;7702;51.046;5.184;2022-12-07T06:29:25;26.30;;;20.80;;
15202;SDS011;7702;51.046;5.184;2022-12-07T06:31:51;29.60;;;21.23;;
15202;SDS011;7702;51.046;5.184;2022-12-07T06:34:18;31.20;;;19.67;;
15202;SDS011;7702;51.046;5.184;2022-12-07T06:36:45;26.90;;;20.43;;
15202;SDS011;7702;51.046;5.184;2022-12-07T06:39:16;34.93;;;21.10;;
15202;SDS011;7702;51.046;5.184;2022-12-07T06:41:42;30.53;;;20.10;;
15202;SDS011;7702;51.046;5.184;2022-12-07T06:44:08;27.27;;;20.53;;
15202;SDS011;7702;51.046;5.184;2022-12-07T06:46:33;28.33;;;18.63;;
15202;SDS011;7702;51.046;5.184;2022-12-07T06:49:02;28.30;;;19.23;;
15202;SDS011;7702;51.046;5.184;2022-12-07T06:51:29;24.90;;;18.27;;
15202;SDS011;7702;51.046;5.184;2022-12-07T06:53:56;25.20;;;16.97;;
15202;SDS011;7702;51.046;5.184;2022-12-07T06:56:22;23.73;;;17.83;;
15202;SDS011;7702;51.046;5.184;2022-12-07T06:58:48;26.00;;;18.77;;
15202;SDS011;7702;51.046;5.184;2022-12-07T07:01:15;22.90;;;17.90;;
15202;SDS011;7702;51.046;5.184;2022-12-07T07:03:42;27.30;;;18.03;;
15202;SDS011;7702;51.046;5.184;2022-12-07T07:06:09;27.07;;;18.87;;
15202;SDS011;7702;51.046;5.184;2022-12-07T07:08:35;26.73;;;18.47;;
15202;SDS011;7702;51.046;5.184;2022-12-07T07:11:02;25.50;;;18.17;;
15202;SDS011;7702;51.046;5.184;2022-12-07T07:13:28;27.13;;;18.73;;
15202;SDS011;7702;51.046;5.184;2022-12-07T07:15:54;27.07;;;19.97;;
15202;SDS011;7702;51.046;5.184;2022-12-07T07:18:20;29.63;;;19.70;;
15202;SDS011;7702;51.046;5.184;2022-12-07T07:20:46;27.57;;;18.77;;
15202;SDS011;7702;51.046;5.184;2022-12-07T07:23:12;25.70;;;19.53;;
15202;SDS011;7702;51.046;5.184;2022-12-07T07:25:37;23.83;;;18.43;;
15202;SDS011;7702;51.046;5.184;2022-12-07T07:28:03;26.90;;;20.23;;
15202;SDS011;7702;51.046;5.184;2022-12-07T07:30:30;28.63;;;19.87;;
15202;SDS011;7702;51.046;5.184;2022-12-07T07:33:00;29.37;;;18.73;;
15202;SDS011;7702;51.046;5.184;2022-12-07T07:35:27;29.33;;;19.83;;
15202;SDS011;7702;51.046;5.184;2022-12-07T07:37:54;25.77;;;18.90;;
15202;SDS011;7702;51.046;5.184;2022-12-07T07:40:20;32.27;;;19.03;;
15202;SDS011;7702;51.046;5.184;2022-12-07T07:42:49;26.37;;;19.13;;
15202;SDS011;7702;51.046;5.184;2022-12-07T07:45:16;31.17;;;19.87;;
15202;SDS011;7702;51.046;5.184;2022-12-07T07:47:42;29.07;;;19.07;;
15202;SDS011;7702;51.046;5.184;2022-12-07T07:50:08;27.67;;;19.03;;
15202;SDS011;7702;51.046;5.184;2022-12-07T07:52:34;27.90;;;19.03;;
15202;SDS011;7702;51.046;5.184;2022-12-07T07:55:00;23.50;;;18.60;;
15202;SDS011;7702;51.046;5.184;2022-12-07T07:57:25;28.67;;;18.83;;
15202;SDS011;7702;51.046;5.184;2022-12-07T07:59:52;28.93;;;18.80;;
15202;SDS011;7702;51.046;5.184;2022-12-07T08:02:18;31.57;;;19.43;;
15202;SDS011;7702;51.046;5.184;2022-12-07T08:04:45;29.80;;;19.03;;
15202;SDS011;7702;51.046;5.184;2022-12-07T08:07:11;31.20;;;18.97;;
15202;SDS011;7702;51.046;5.184;2022-12-07T08:09:38;29.17;;;19.13;;
15202;SDS011;7702;51.046;5.184;2022-12-07T08:12:04;28.47;;;18.93;;
15202;SDS011;7702;51.046;5.184;2022-12-07T08:14:30;26.73;;;19.80;;
15202;SDS011;7702;51.046;5.184;2022-12-07T08:16:56;30.43;;;21.03;;
15202;SDS011;7702;51.046;5.184;2022-12-07T08:19:22;28.77;;;19.67;;
15202;SDS011;7702;51.046;5.184;2022-12-07T08:21:48;29.40;;;19.67;;
15202;SDS011;7702;51.046;5.184;2022-12-07T08:24:14;29.80;;;20.47;;
15202;SDS011;7702;51.046;5.184;2022-12-07T08:26:40;27.40;;;18.60;;
15202;SDS011;7702;51.046;5.184;2022-12-07T08:29:06;27.33;;;19.20;;
15202;SDS011;7702;51.046;5.184;2022-12-07T08:31:31;26.07;;;18.97;;
15202;SDS011;7702;51.046;5.184;2022-12-07T08:33:57;28.03;;;16.67;;
15202;SDS011;7702;51.046;5.184;2022-12-07T08:36:23;28.17;;;18.10;;
15202;SDS011;7702;51.046;5.184;2022-12-07T08:38:49;23.53;;;17.30;;
15202;SDS011;7702;51.046;5.184;2022-12-07T08:41:15;25.63;;;17.70;;
15202;SDS011;7702;51.046;5.184;2022-12-07T08:43:41;23.40;;;16.47;;
15202;SDS011;7702;51.046;5.184;2022-12-07T08:46:08;23.40;;;16.07;;
15202;SDS011;7702;51.046;5.184;2022-12-07T08:48:36;24.57;;;16.60;;
15202;SDS011;7702;51.046;5.184;2022-12-07T08:51:06;23.50;;;17.60;;
15202;SDS011;7702;51.046;5.184;2022-12-07T08:53:32;27.63;;;18.47;;
15202;SDS011;7702;51.046;5.184;2022-12-07T08:56:00;21.93;;;17.57;;
15202;SDS011;7702;51.046;5.184;2022-12-07T08:58:26;23.93;;;18.70;;
15202;SDS011;7702;51.046;5.184;2022-12-07T09:00:52;21.00;;;18.43;;
15202;SDS011;7702;51.046;5.184;2022-12-07T09:03:17;25.77;;;19.53;;
15202;SDS011;7702;51.046;5.184;2022-12-07T09:05:43;25.00;;;19.37;;
15202;SDS011;7702;51.046;5.184;2022-12-07T09:08:09;25.80;;;17.43;;
15202;SDS011;7702;51.046;5.184;2022-12-07T09:10:35;24.83;;;16.07;;
15202;SDS011;7702;51.046;5.184;2022-12-07T09:13:01;19.50;;;14.97;;
15202;SDS011;7702;51.046;5.184;2022-12-07T09:15:27;19.43;;;13.63;;
15202;SDS011;7702;51.046;5.184;2022-12-07T09:17:53;15.97;;;12.70;;
15202;SDS011;7702;51.046;5.184;2022-12-07T09:20:19;18.63;;;12.47;;
15202;SDS011;7702;51.046;5.184;2022-12-07T09:22:45;15.13;;;12.33;;
15202;SDS011;7702;51.046;5.184;2022-12-07T09:25:11;15.60;;;11.87;;
15202;SDS011;7702;51.046;5.184;2022-12-07T09:27:36;13.53;;;11.13;;
15202;SDS011;7702;51.046;5.184;2022-12-07T09:30:03;16.80;;;11.90;;
15202;SDS011;7702;51.046;5.184;2022-12-07T09:32:29;16.00;;;10.93;;
15202;SDS011;7702;51.046;5.184;2022-12-07T09:34:55;14.93;;;10.27;;
15202;SDS011;7702;51.046;5.184;2022-12-07T09:37:21;14.00;;;9.87;;
15202;SDS011;7702;51.046;5.184;2022-12-07T09:39:47;17.50;;;11.43;;
15202;SDS011;7702;51.046;5.184;2022-12-07T09:45:24;16.63;;;10.90;;
15202;SDS011;7702;51.046;5.184;2022-12-07T09:47:52;17.90;;;11.07;;
15202;SDS011;7702;51.046;5.184;2022-12-07T09:50:23;12.53;;;10.03;;
15202;SDS011;7702;51.046;5.184;2022-12-07T09:52:51;11.20;;;9.00;;
15202;SDS011;7702;51.046;5.184;2022-12-07T09:55:26;10.33;;;9.20;;
15202;SDS011;7702;51.046;5.184;2022-12-07T09:57:53;11.10;;;8.07;;
15202;SDS011;7702;51.046;5.184;2022-12-07T10:00:21;8.50;;;7.60;;
15202;SDS011;7702;51.046;5.184;2022-12-07T10:05:25;9.23;;;7.70;;
15202;SDS011;7702;51.046;5.184;2022-12-07T10:07:57;11.63;;;7.50;;
15202;SDS011;7702;51.046;5.184;2022-12-07T10:10:27;9.47;;;7.90;;
15202;SDS011;7702;51.046;5.184;2022-12-07T10:15:23;11.03;;;7.13;;
15202;SDS011;7702;51.046;5.184;2022-12-07T10:18:13;10.63;;;7.60;;
15202;SDS011;7702;51.046;5.184;2022-12-07T10:20:44;10.47;;;7.50;;
15202;SDS011;7702;51.046;5.184;2022-12-07T10:23:15;9.73;;;6.70;;
15202;SDS011;7702;51.046;5.184;2022-12-07T10:25:43;12.70;;;8.13;;
15202;SDS011;7702;51.046;5.184;2022-12-07T10:28:11;18.10;;;12.03;;
15202;SDS011;7702;51.046;5.184;2022-12-07T10:36:02;10.27;;;7.00;;
15202;SDS011;7702;51.046;5.184;2022-12-07T10:39:02;8.93;;;6.87;;
15202;SDS011;7702;51.046;5.184;2022-12-07T10:41:35;11.17;;;7.80;;
15202;SDS011;7702;51.046;5.184;2022-12-07T10:44:20;11.57;;;7.67;;
15202;SDS011;7702;51.046;5.184;2022-12-07T10:46:57;10.87;;;7.10;;
15202;SDS011;7702;51.046;5.184;2022-12-07T10:55:17;10.43;;;6.50;;
15202;SDS011;7702;51.046;5.184;2022-12-07T11:00:39;9.67;;;6.80;;
15202;SDS011;7702;51.046;5.184;2022-12-07T11:05:49;9.90;;;6.97;;
15202;SDS011;7702;51.046;5.184;2022-12-07T11:11:26;11.07;;;6.63;;
15202;SDS011;7702;51.046;5.184;2022-12-07T11:23:04;9.90;;;6.50;;
15202;SDS011;7702;51.046;5.184;2022-12-07T11:25:50;7.30;;;5.17;;
15202;SDS011;7702;51.046;5.184;2022-12-07T11:36:23;6.30;;;5.20;;
15202;SDS011;7702;51.046;5.184;2022-12-07T11:41:46;9.70;;;5.30;;
15202;SDS011;7702;51.046;5.184;2022-12-07T11:49:47;7.97;;;6.93;;
15202;SDS011;7702;51.046;5.184;2022-12-07T11:52:27;9.43;;;8.27;;
15202;SDS011;7702;51.046;5.184;2022-12-07T11:55:05;10.93;;;8.60;;
15202;SDS011;7702;51.046;5.184;2022-12-07T11:57:53;9.70;;;8.10;;
15202;SDS011;7702;51.046;5.184;2022-12-07T12:00:25;10.00;;;7.77;;
15202;SDS011;7702;51.046;5.184;2022-12-07T12:05:26;10.43;;;6.27;;
15202;SDS011;7702;51.046;5.184;2022-12-07T12:07:57;6.27;;;5.30;;
15202;SDS011;7702;51.046;5.184;2022-12-07T12:15:51;8.93;;;4.83;;
15202;SDS011;7702;51.046;5.184;2022-12-07T12:18:48;6.80;;;4.50;;
15202;SDS011;7702;51.046;5.184;2022-12-07T12:21:19;8.33;;;4.93;;
15202;SDS011;7702;51.046;5.184;2022-12-07T12:23:54;6.20;;;3.87;;
15202;SDS011;7702;51.046;5.184;2022-12-07T12:26:29;4.17;;;3.20;;
15202;SDS011;7702;51.046;5.184;2022-12-07T12:28:58;5.93;;;3.50;;
15202;SDS011;7702;51.046;5.184;2022-12-07T12:31:36;6.13;;;3.23;;
15202;SDS011;7702;51.046;5.184;2022-12-07T12:37:51;6.67;;;3.27;;
15202;SDS011;7702;51.046;5.184;2022-12-07T12:42:48;5.43;;;3.27;;
15202;SDS011;7702;51.046;5.184;2022-12-07T12:47:53;5.57;;;3.93;;
15202;SDS011;7702;51.046;5.184;2022-12-07T12:50:28;6.53;;;4.30;;
15202;SDS011;7702;51.046;5.184;2022-12-07T12:53:34;6.83;;;3.60;;
15202;SDS011;7702;51.046;5.184;2022-12-07T13:00:46;8.90;;;3.60;;
15202;SDS011;7702;51.046;5.184;2022-12-07T13:03:22;5.60;;;3.97;;
15202;SDS011;7702;51.046;5.184;2022-12-07T13:08:55;8.07;;;7.33;;
15202;SDS011;7702;51.046;5.184;2022-12-07T13:11:36;11.37;;;8.20;;
15202;SDS011;7702;51.046;5.184;2022-12-07T13:17:00;3.37;;;2.07;;
15202;SDS011;7702;51.046;5.184;2022-12-07T13:27:37;4.00;;;2.30;;
15202;SDS011;7702;51.046;5.184;2022-12-07T13:30:09;10.20;;;2.97;;
15202;SDS011;7702;51.046;5.184;2022-12-07T13:32:43;4.80;;;2.20;;
15202;SDS011;7702;51.046;5.184;2022-12-07T13:35:35;5.00;;;2.90;;
15202;SDS011;7702;51.046;5.184;2022-12-07T13:38:04;5.53;;;3.00;;
15202;SDS011;7702;51.046;5.184;2022-12-07T13:40:39;6.73;;;5.40;;
15202;SDS011;7702;51.046;5.184;2022-12-07T13:43:19;10.67;;;7.27;;
15202;SDS011;7702;51.046;5.184;2022-12-07T13:45:44;8.67;;;5.70;;
15202;SDS011;7702;51.046;5.184;2022-12-07T13:48:30;5.50;;;4.20;;
15202;SDS011;7702;51.046;5.184;2022-12-07T13:50:59;8.67;;;3.43;;
15202;SDS011;7702;51.046;5.184;2022-12-07T13:53:27;8.73;;;3.47;;
15202;SDS011;7702;51.046;5.184;2022-12-07T13:55:55;16.40;;;14.47;;
15202;SDS011;7702;51.046;5.184;2022-12-07T13:58:23;6.00;;;3.23;;
15202;SDS011;7702;51.046;5.184;2022-12-07T14:00:49;7.03;;;3.50;;
15202;SDS011;7702;51.046;5.184;2022-12-07T14:05:42;5.40;;;3.90;;
15202;SDS011;7702;51.046;5.184;2022-12-07T14:15:57;9.30;;;4.97;;
15202;SDS011;7702;51.046;5.184;2022-12-07T14:18:31;9.33;;;4.97;;
15202;SDS011;7702;51.046;5.184;2022-12-07T14:23:35;7.87;;;4.47;;
15202;SDS011;7702;51.046;5.184;2022-12-07T14:26:11;6.47;;;4.47;;
15202;SDS011;7702;51.046;5.184;2022-12-07T14:28:38;11.17;;;4.93;;
15202;SDS011;7702;51.046;5.184;2022-12-07T14:31:12;10.00;;;4.63;;
15202;SDS011;7702;51.046;5.184;2022-12-07T14:33:40;6.30;;;4.37;;
15202;SDS011;7702;51.046;5.184;2022-12-07T14:36:08;10.37;;;5.87;;
15202;SDS011;7702;51.046;5.184;2022-12-07T14:38:35;9.17;;;5.17;;
15202;SDS011;7702;51.046;5.184;2022-12-07T14:41:02;9.83;;;6.80;;
15202;SDS011;7702;51.046;5.184;2022-12-07T14:43:47;11.07;;;6.60;;
15202;SDS011;7702;51.046;5.184;2022-12-07T14:46:13;8.47;;;6.97;;
15202;SDS011;7702;51.046;5.184;2022-12-07T14:48:39;14.23;;;8.90;;
15202;SDS011;7702;51.046;5.184;2022-12-07T14:51:04;8.70;;;6.40;;
15202;SDS011;7702;51.046;5.184;2022-12-07T14:53:35;9.43;;;6.23;;
15202;SDS011;7702;51.046;5.184;2022-12-07T14:56:04;9.70;;;6.90;;
15202;SDS011;7702;51.046;5.184;2022-12-07T14:58:30;7.70;;;7.00;;
15202;SDS011;7702;51.046;5.184;2022-12-07T15:00:57;9.73;;;7.57;;
15202;SDS011;7702;51.046;5.184;2022-12-07T15:03:23;9.33;;;6.70;;
15202;SDS011;7702;51.046;5.184;2022-12-07T15:05:48;14.80;;;7.23;;
15202;SDS011;7702;51.046;5.184;2022-12-07T15:08:14;8.13;;;6.07;;
15202;SDS011;7702;51.046;5.184;2022-12-07T15:10:40;9.80;;;6.57;;
15202;SDS011;7702;51.046;5.184;2022-12-07T15:13:06;11.57;;;7.23;;
15202;SDS011;7702;51.046;5.184;2022-12-07T15:15:51;7.67;;;6.83;;
15202;SDS011;7702;51.046;5.184;2022-12-07T15:18:19;12.27;;;7.67;;
15202;SDS011;7702;51.046;5.184;2022-12-07T15:20:46;11.33;;;6.57;;
15202;SDS011;7702;51.046;5.184;2022-12-07T15:23:12;10.20;;;7.00;;
15202;SDS011;7702;51.046;5.184;2022-12-07T15:25:41;9.47;;;7.00;;
15202;SDS011;7702;51.046;5.184;2022-12-07T15:28:08;9.83;;;7.80;;
15202;SDS011;7702;51.046;5.184;2022-12-07T15:30:34;9.93;;;7.00;;
15202;SDS011;7702;51.046;5.184;2022-12-07T15:33:02;7.23;;;6.47;;
15202;SDS011;7702;51.046;5.184;2022-12-07T15:35:28;9.27;;;5.53;;
15202;SDS011;7702;51.046;5.184;2022-12-07T15:37:53;6.50;;;5.57;;
15202;SDS011;7702;51.046;5.184;2022-12-07T15:40:19;9.63;;;5.77;;
15202;SDS011;7702;51.046;5.184;2022-12-07T15:42:45;10.60;;;5.07;;
15202;SDS011;7702;51.046;5.184;2022-12-07T15:45:12;6.07;;;5.17;;
15202;SDS011;7702;51.046;5.184;2022-12-07T15:47:41;5.37;;;4.37;;
15202;SDS011;7702;51.046;5.184;2022-12-07T15:50:09;7.13;;;4.37;;
15202;SDS011;7702;51.046;5.184;2022-12-07T15:52:37;7.13;;;5.30;;
15202;SDS011;7702;51.046;5.184;2022-12-07T15:55:03;6.93;;;5.43;;
15202;SDS011;7702;51.046;5.184;2022-12-07T15:57:30;9.23;;;5.50;;
15202;SDS011;7702;51.046;5.184;2022-12-07T15:59:57;8.67;;;6.97;;
15202;SDS011;7702;51.046;5.184;2022-12-07T16:02:22;12.97;;;8.97;;
15202;SDS011;7702;51.046;5.184;2022-12-07T16:04:49;9.73;;;7.30;;
15202;SDS011;7702;51.046;5.184;2022-12-07T16:07:15;8.03;;;7.23;;
15202;SDS011;7702;51.046;5.184;2022-12-07T16:09:42;8.97;;;7.50;;
15202;SDS011;7702;51.046;5.184;2022-12-07T16:12:09;9.20;;;7.20;;
15202;SDS011;7702;51.046;5.184;2022-12-07T16:14:36;8.60;;;7.60;;
15202;SDS011;7702;51.046;5.184;2022-12-07T16:17:02;9.13;;;7.50;;
15202;SDS011;7702;51.046;5.184;2022-12-07T16:19:29;8.03;;;6.90;;
15202;SDS011;7702;51.046;5.184;2022-12-07T16:21:55;8.40;;;7.57;;
15202;SDS011;7702;51.046;5.184;2022-12-07T16:24:22;10.10;;;9.07;;
15202;SDS011;7702;51.046;5.184;2022-12-07T16:26:47;8.87;;;8.07;;
15202;SDS011;7702;51.046;5.184;2022-12-07T16:29:14;11.20;;;9.90;;
15202;SDS011;7702;51.046;5.184;2022-12-07T16:31:41;10.50;;;8.33;;
15202;SDS011;7702;51.046;5.184;2022-12-07T16:34:07;9.20;;;7.80;;
15202;SDS011;7702;51.046;5.184;2022-12-07T16:36:34;9.70;;;7.47;;
15202;SDS011;7702;51.046;5.184;2022-12-07T16:39:00;7.00;;;6.30;;
15202;SDS011;7702;51.046;5.184;2022-12-07T16:41:26;7.43;;;6.73;;
15202;SDS011;7702;51.046;5.184;2022-12-07T16:43:52;9.10;;;7.00;;
15202;SDS011;7702;51.046;5.184;2022-12-07T16:46:18;10.43;;;7.70;;
15202;SDS011;7702;51.046;5.184;2022-12-07T16:48:44;9.80;;;6.60;;
15202;SDS011;7702;51.046;5.184;2022-12-07T16:51:10;8.40;;;7.13;;
15202;SDS011;7702;51.046;5.184;2022-12-07T16:53:38;9.97;;;7.07;;
15202;SDS011;7702;51.046;5.184;2022-12-07T16:56:13;12.03;;;8.07;;
15202;SDS011;7702;51.046;5.184;2022-12-07T16:58:41;13.10;;;8.30;;
15202;SDS011;7702;51.046;5.184;2022-12-07T17:01:08;19.83;;;13.50;;
15202;SDS011;7702;51.046;5.184;2022-12-07T17:03:38;9.50;;;8.13;;
15202;SDS011;7702;51.046;5.184;2022-12-07T17:06:10;10.03;;;6.30;;
15202;SDS011;7702;51.046;5.184;2022-12-07T17:08:40;6.57;;;5.47;;
15202;SDS011;7702;51.046;5.184;2022-12-07T17:11:10;7.90;;;6.30;;
15202;SDS011;7702;51.046;5.184;2022-12-07T17:13:46;10.90;;;8.67;;
15202;SDS011;7702;51.046;5.184;2022-12-07T17:16:31;10.93;;;7.87;;
15202;SDS011;7702;51.046;5.184;2022-12-07T17:18:56;11.13;;;8.77;;
15202;SDS011;7702;51.046;5.184;2022-12-07T17:21:23;8.70;;;7.10;;
15202;SDS011;7702;51.046;5.184;2022-12-07T17:23:48;13.57;;;8.77;;
15202;SDS011;7702;51.046;5.184;2022-12-07T17:26:18;13.17;;;8.10;;
15202;SDS011;7702;51.046;5.184;2022-12-07T17:28:46;12.87;;;8.23;;